createdAt,value
2022-09-20T00:00:11.217Z,96.47
2022-09-20T00:01:11.301Z,96.37
2022-09-20T00:02:11.197Z,96.26
2022-09-20T00:03:11.211Z,96.26
2022-09-20T00:04:11.330Z,96.06
2022-09-20T00:05:11.277Z,95.95
2022-09-20T00:06:11.153Z,95.86
2022-09-20T00:07:11.126Z,95.95
2022-09-20T00:08:11.134Z,95.86
2022-09-20T00:09:11.153Z,95.95
2022-09-20T00:10:11.106Z,95.95
2022-09-20T00:11:11.094Z,96.06
2022-09-20T00:12:11.086Z,95.95
2022-09-20T00:13:11.067Z,96.06
2022-09-20T00:14:11.078Z,96.06
2022-09-20T00:15:11.059Z,96.22
2022-09-20T00:16:11.077Z,96.12
2022-09-20T00:17:11.030Z,95.91
2022-09-20T00:18:11.018Z,95.91
2022-09-20T00:19:10.995Z,95.81
2022-09-20T00:20:11.007Z,96.01
2022-09-20T00:21:10.974Z,96.01
2022-09-20T00:22:10.966Z,95.81
2022-09-20T00:23:10.954Z,95.91
2022-09-20T00:24:11.470Z,95.81
2022-09-20T00:25:10.939Z,95.91
2022-09-20T00:26:10.926Z,95.91
2022-09-20T00:27:10.918Z,96.12
2022-09-20T00:28:10.899Z,96.32
2022-09-20T00:29:10.875Z,96.22
2022-09-20T00:30:10.907Z,96.22
2022-09-20T00:31:10.858Z,96.01
2022-09-20T00:32:10.945Z,96.32
2022-09-20T00:33:10.846Z,96.22
2022-09-20T00:34:10.838Z,96.16
2022-09-20T00:35:10.820Z,96.26
2022-09-20T00:36:10.818Z,96.26
2022-09-20T00:37:10.799Z,96.26
2022-09-20T00:38:10.786Z,96.47
2022-09-20T00:39:10.767Z,96.47
2022-09-20T00:40:10.840Z,96.47
2022-09-20T00:41:10.774Z,96.57
2022-09-20T00:42:10.758Z,96.47
2022-09-20T00:43:10.719Z,96.47
2022-09-20T00:44:10.755Z,96.26
2022-09-20T00:45:10.698Z,96.37
2022-09-20T00:46:10.780Z,96.47
2022-09-20T00:47:10.687Z,96.47
2022-09-20T00:48:10.667Z,96.47
2022-09-20T00:49:10.658Z,96.47
2022-09-20T00:50:10.646Z,96.37
2022-09-20T00:51:10.658Z,96.26
2022-09-20T00:52:10.647Z,96.37
2022-09-20T00:53:10.598Z,96.16
2022-09-20T00:54:10.620Z,96.16
2022-09-20T00:55:10.595Z,96.06
2022-09-20T00:56:10.578Z,96.16
2022-09-20T00:57:10.587Z,96.26
2022-09-20T00:58:10.558Z,96.37
2022-09-20T00:59:10.538Z,96.37
2022-09-20T01:00:10.532Z,96.47
2022-09-20T01:01:10.579Z,96.37
2022-09-20T01:02:10.549Z,96.16
2022-09-20T01:03:10.563Z,96.16
2022-09-20T01:04:10.546Z,96.37
2022-09-20T01:05:10.477Z,96.57
2022-09-20T01:06:10.474Z,96.47
2022-09-20T01:07:10.447Z,96.47
2022-09-20T01:08:10.482Z,96.26
2022-09-20T01:09:10.459Z,96.37
2022-09-20T01:10:10.419Z,96.16
2022-09-20T01:11:10.408Z,96.37
2022-09-20T01:12:10.399Z,96.47
2022-09-20T01:13:10.370Z,96.47
2022-09-20T01:14:10.403Z,96.47
2022-09-20T01:15:10.359Z,96.37
2022-09-20T01:16:10.378Z,96.37
2022-09-20T01:17:10.333Z,96.26
2022-09-20T01:18:10.420Z,96.32
2022-09-20T01:19:10.307Z,96.42
2022-09-20T01:20:10.309Z,96.37
2022-09-20T01:21:10.305Z,96.22
2022-09-20T01:22:10.287Z,96.16
2022-09-20T01:23:10.266Z,96.26
2022-09-20T01:24:10.279Z,96.26
2022-09-20T01:25:10.260Z,96.37
2022-09-20T01:26:10.279Z,96.47
2022-09-20T01:27:10.267Z,96.57
2022-09-20T01:28:10.300Z,96.47
2022-09-20T01:29:10.299Z,96.57
2022-09-20T01:30:10.342Z,96.67
2022-09-20T01:31:10.344Z,96.37
2022-09-20T01:32:10.396Z,96.37
2022-09-20T01:33:10.359Z,96.26
2022-09-20T01:34:10.388Z,96.37
2022-09-20T01:35:10.456Z,96.26
2022-09-20T01:36:10.435Z,96.37
2022-09-20T01:37:10.453Z,96.37
2022-09-20T01:38:10.519Z,96.37
2022-09-20T01:39:10.387Z,96.37
2022-09-20T01:40:10.705Z,96.37
2022-09-20T01:41:10.432Z,96.47
2022-09-20T01:42:10.501Z,96.47
2022-09-20T01:43:10.452Z,96.57
2022-09-20T01:44:10.107Z,96.47
2022-09-20T01:45:10.739Z,96.47
2022-09-20T01:46:10.116Z,96.57
2022-09-20T01:47:10.007Z,96.47
2022-09-20T01:48:10.464Z,96.67
2022-09-20T01:49:10.327Z,96.78
2022-09-20T01:50:10.016Z,96.78
2022-09-20T01:51:09.975Z,96.88
2022-09-20T01:52:09.939Z,96.67
2022-09-20T01:53:10.784Z,96.47
2022-09-20T01:54:09.911Z,96.67
2022-09-20T01:55:09.911Z,96.82
2022-09-20T01:56:09.911Z,96.88
2022-09-20T01:57:09.892Z,96.88
2022-09-20T01:58:09.871Z,96.57
2022-09-20T01:59:23.575Z,96.57
2022-09-20T02:00:10.876Z,96.67
2022-09-20T02:01:09.856Z,96.57
2022-09-20T02:02:09.921Z,96.72
2022-09-20T02:03:09.828Z,96.78
2022-09-20T02:04:09.799Z,96.72
2022-09-20T02:05:09.792Z,96.88
2022-09-20T02:06:09.772Z,96.67
2022-09-20T02:07:09.780Z,96.67
2022-09-20T02:08:09.788Z,96.67
2022-09-20T02:09:09.752Z,96.67
2022-09-20T02:10:09.735Z,96.78
2022-09-20T02:11:09.732Z,96.78
2022-09-20T02:12:09.712Z,96.88
2022-09-20T02:13:09.892Z,96.78
2022-09-20T02:14:09.712Z,96.88
2022-09-20T02:15:09.689Z,96.78
2022-09-20T02:16:09.694Z,96.92
2022-09-20T02:17:09.681Z,97.03
2022-09-20T02:18:09.644Z,97.13
2022-09-20T02:19:09.664Z,97.13
2022-09-20T02:20:09.621Z,97.23
2022-09-20T02:21:09.622Z,97.33
2022-09-20T02:22:09.592Z,97.44
2022-09-20T02:23:09.674Z,97.64
2022-09-20T02:24:09.572Z,97.64
2022-09-20T02:25:09.586Z,97.54
2022-09-20T02:26:09.552Z,97.33
2022-09-20T02:27:09.561Z,97.33
2022-09-20T02:28:09.533Z,97.33
2022-09-20T02:29:09.522Z,97.33
2022-09-20T02:30:09.540Z,97.54
2022-09-20T02:31:09.504Z,97.64
2022-09-20T02:32:09.505Z,97.64
2022-09-20T02:33:09.741Z,97.44
2022-09-20T02:34:09.461Z,97.33
2022-09-20T02:35:09.485Z,97.44
2022-09-20T02:36:09.449Z,97.44
2022-09-20T02:37:09.432Z,97.44
2022-09-20T02:38:09.420Z,97.44
2022-09-20T02:39:09.441Z,97.64
2022-09-20T02:40:09.434Z,97.44
2022-09-20T02:41:09.394Z,97.23
2022-09-20T02:42:09.364Z,97.33
2022-09-20T02:43:09.374Z,97.23
2022-09-20T02:44:09.345Z,97.23
2022-09-20T02:45:09.364Z,97.03
2022-09-20T02:46:09.422Z,97.03
2022-09-20T02:47:09.320Z,97.13
2022-09-20T02:48:09.317Z,97.23
2022-09-20T02:49:09.303Z,97.23
2022-09-20T02:50:09.305Z,97.28
2022-09-20T02:51:09.302Z,97.38
2022-09-20T02:52:09.260Z,97.28
2022-09-20T02:53:09.764Z,97.28
2022-09-20T02:54:09.224Z,97.58
2022-09-20T02:55:09.244Z,97.38
2022-09-20T02:56:09.220Z,97.38
2022-09-20T02:57:09.249Z,97.48
2022-09-20T02:58:09.185Z,97.48
2022-09-20T02:59:09.185Z,97.58
2022-09-20T03:00:09.185Z,97.69
2022-09-20T03:01:09.271Z,97.69
2022-09-20T03:02:09.237Z,97.89
2022-09-20T03:03:09.187Z,97.99
2022-09-20T03:04:09.133Z,98.10
2022-09-20T03:05:09.221Z,97.99
2022-09-20T03:06:09.228Z,97.99
2022-09-20T03:07:09.288Z,98.30
2022-09-20T03:08:09.234Z,98.10
2022-09-20T03:09:09.162Z,98.10
2022-09-20T03:10:09.181Z,98.10
2022-09-20T03:11:09.275Z,98.10
2022-09-20T03:12:09.121Z,97.79
2022-09-20T03:13:09.213Z,97.58
2022-09-20T03:14:09.293Z,97.69
2022-09-20T03:15:09.027Z,97.69
2022-09-20T03:16:09.049Z,97.69
2022-09-20T03:17:09.226Z,97.58
2022-09-20T03:18:09.193Z,97.48
2022-09-20T03:19:08.956Z,97.58
2022-09-20T03:20:08.969Z,97.48
2022-09-20T03:21:08.941Z,97.48
2022-09-20T03:22:08.945Z,97.48
2022-09-20T03:23:08.913Z,97.58
2022-09-20T03:24:08.901Z,97.28
2022-09-20T03:25:08.890Z,97.17
2022-09-20T03:26:08.897Z,97.17
2022-09-20T03:27:08.875Z,97.28
2022-09-20T03:28:08.882Z,97.38
2022-09-20T03:29:08.927Z,97.38
2022-09-20T03:30:08.833Z,97.28
2022-09-20T03:31:08.828Z,97.38
2022-09-20T03:32:08.831Z,97.28
2022-09-20T03:33:08.805Z,97.28
2022-09-20T03:34:08.804Z,97.38
2022-09-20T03:35:08.791Z,97.48
2022-09-20T03:36:08.774Z,97.38
2022-09-20T03:37:08.755Z,97.48
2022-09-20T03:38:08.734Z,97.58
2022-09-20T03:39:08.777Z,97.38
2022-09-20T03:40:08.732Z,97.28
2022-09-20T03:41:08.718Z,97.38
2022-09-20T03:42:08.699Z,97.28
2022-09-20T03:43:08.686Z,97.17
2022-09-20T03:44:08.726Z,97.07
2022-09-20T03:45:08.674Z,97.07
2022-09-20T03:46:08.656Z,97.17
2022-09-20T03:47:08.634Z,97.28
2022-09-20T03:48:08.617Z,96.97
2022-09-20T03:49:08.625Z,97.07
2022-09-20T03:50:08.606Z,97.17
2022-09-20T03:51:08.609Z,97.28
2022-09-20T03:52:08.574Z,97.38
2022-09-20T03:53:08.586Z,97.48
2022-09-20T03:54:08.597Z,97.48
2022-09-20T03:55:08.556Z,97.48
2022-09-20T03:56:08.535Z,97.38
2022-09-20T03:57:08.534Z,97.28
2022-09-20T03:58:09.117Z,97.17
2022-09-20T03:59:08.585Z,97.28
2022-09-20T04:00:08.506Z,97.17
2022-09-20T04:01:08.590Z,97.17
2022-09-20T04:02:08.502Z,97.17
2022-09-20T04:03:08.466Z,97.07
2022-09-20T04:04:08.438Z,96.97
2022-09-20T04:05:08.455Z,96.97
2022-09-20T04:06:08.426Z,96.87
2022-09-20T04:07:08.430Z,96.97
2022-09-20T04:08:08.406Z,97.07
2022-09-20T04:09:08.406Z,96.97
2022-09-20T04:10:08.518Z,97.07
2022-09-20T04:11:08.388Z,97.07
2022-09-20T04:12:08.379Z,97.17
2022-09-20T04:13:08.358Z,97.28
2022-09-20T04:14:11.422Z,97.38
2022-09-20T04:15:08.367Z,97.48
2022-09-20T04:16:08.418Z,97.53
2022-09-20T04:17:08.326Z,97.53
2022-09-20T04:18:08.314Z,97.58
2022-09-20T04:19:08.289Z,97.73
2022-09-20T04:20:08.275Z,97.83
2022-09-20T04:21:08.279Z,97.63
2022-09-20T04:22:08.880Z,97.63
2022-09-20T04:23:08.238Z,97.73
2022-09-20T04:24:08.221Z,98.04
2022-09-20T04:25:08.227Z,97.83
2022-09-20T04:26:08.208Z,97.94
2022-09-20T04:27:08.198Z,97.94
2022-09-20T04:28:08.171Z,98.04
2022-09-20T04:29:08.267Z,98.14
2022-09-20T04:30:08.188Z,98.14
2022-09-20T04:31:08.226Z,98.14
2022-09-20T04:32:08.207Z,98.14
2022-09-20T04:33:08.118Z,97.94
2022-09-20T04:34:08.123Z,97.94
2022-09-20T04:35:08.110Z,98.04
2022-09-20T04:36:08.086Z,98.14
2022-09-20T04:37:08.079Z,98.04
2022-09-20T04:38:08.067Z,97.94
2022-09-20T04:39:08.106Z,97.94
2022-09-20T04:40:08.095Z,97.94
2022-09-20T04:41:08.038Z,98.04
2022-09-20T04:42:08.206Z,98.04
2022-09-20T04:43:08.103Z,97.94
2022-09-20T04:44:08.036Z,97.94
2022-09-20T04:45:07.995Z,98.04
2022-09-20T04:46:08.038Z,98.04
2022-09-20T04:47:08.013Z,98.04
2022-09-20T04:48:07.950Z,98.14
2022-09-20T04:49:07.954Z,98.14
2022-09-20T04:50:07.923Z,98.14
2022-09-20T04:51:07.941Z,98.35
2022-09-20T04:52:07.918Z,98.35
2022-09-20T04:53:07.923Z,98.14
2022-09-20T04:54:07.870Z,98.30
2022-09-20T04:55:07.878Z,98.10
2022-09-20T04:56:07.850Z,98.10
2022-09-20T04:57:07.863Z,98.14
2022-09-20T04:58:07.830Z,98.25
2022-09-20T04:59:08.107Z,98.45
2022-09-20T05:00:07.834Z,98.35
2022-09-20T05:01:07.866Z,98.25
2022-09-20T05:02:08.181Z,98.35
2022-09-20T05:03:07.791Z,98.35
2022-09-20T05:04:07.761Z,98.45
2022-09-20T05:05:07.770Z,98.35
2022-09-20T05:06:07.751Z,98.25
2022-09-20T05:07:07.758Z,98.25
2022-09-20T05:08:07.739Z,98.35
2022-09-20T05:09:07.710Z,98.10
2022-09-20T05:10:07.711Z,98.04
2022-09-20T05:11:07.718Z,97.94
2022-09-20T05:12:07.680Z,97.94
2022-09-20T05:13:07.706Z,98.04
2022-09-20T05:14:07.647Z,98.04
2022-09-20T05:15:07.674Z,97.83
2022-09-20T05:16:07.670Z,97.83
2022-09-20T05:17:07.696Z,97.83
2022-09-20T05:18:07.611Z,97.83
2022-09-20T05:19:07.602Z,97.83
2022-09-20T05:20:07.590Z,97.73
2022-09-20T05:21:07.610Z,97.63
2022-09-20T05:22:07.751Z,97.58
2022-09-20T05:23:07.578Z,97.69
2022-09-20T05:24:09.548Z,97.58
2022-09-20T05:25:07.543Z,97.58
2022-09-20T05:26:07.510Z,97.48
2022-09-20T05:27:07.519Z,97.48
2022-09-20T05:28:07.523Z,97.48
2022-09-20T05:29:07.479Z,97.58
2022-09-20T05:30:07.481Z,97.58
2022-09-20T05:31:07.483Z,97.48
2022-09-20T05:32:07.508Z,97.48
2022-09-20T05:33:07.459Z,97.28
2022-09-20T05:34:07.423Z,97.28
2022-09-20T05:35:07.423Z,97.48
2022-09-20T05:36:07.412Z,97.28
2022-09-20T05:37:07.403Z,97.28
2022-09-20T05:38:07.399Z,97.28
2022-09-20T05:39:07.391Z,97.07
2022-09-20T05:40:07.510Z,97.17
2022-09-20T05:41:07.353Z,97.17
2022-09-20T05:42:07.335Z,97.38
2022-09-20T05:43:07.349Z,97.38
2022-09-20T05:44:07.356Z,97.38
2022-09-20T05:45:07.330Z,97.17
2022-09-20T05:46:07.360Z,97.07
2022-09-20T05:47:07.285Z,97.17
2022-09-20T05:48:07.283Z,97.38
2022-09-20T05:49:07.267Z,97.38
2022-09-20T05:50:07.232Z,97.38
2022-09-20T05:51:07.240Z,97.38
2022-09-20T05:52:07.231Z,97.28
2022-09-20T05:53:07.275Z,97.28
2022-09-20T05:54:07.180Z,97.38
2022-09-20T05:55:07.191Z,97.38
2022-09-20T05:56:07.164Z,97.28
2022-09-20T05:57:07.172Z,97.28
2022-09-20T05:58:07.171Z,97.38
2022-09-20T05:59:09.613Z,97.48
2022-09-20T06:00:07.163Z,97.38
2022-09-20T06:01:07.209Z,97.58
2022-09-20T06:02:07.174Z,97.58
2022-09-20T06:03:07.099Z,97.38
2022-09-20T06:04:07.120Z,97.17
2022-09-20T06:05:07.095Z,97.28
2022-09-20T06:06:07.079Z,97.17
2022-09-20T06:07:07.052Z,97.28
2022-09-20T06:08:07.051Z,97.38
2022-09-20T06:09:07.025Z,97.58
2022-09-20T06:10:07.035Z,97.69
2022-09-20T06:11:07.448Z,97.48
2022-09-20T06:12:07.060Z,97.48
2022-09-20T06:13:07.063Z,97.58
2022-09-20T06:14:07.274Z,97.48
2022-09-20T06:15:07.131Z,97.63
2022-09-20T06:16:07.213Z,97.69
2022-09-20T06:17:07.249Z,97.79
2022-09-20T06:18:07.285Z,97.89
2022-09-20T06:19:06.916Z,97.99
2022-09-20T06:20:06.902Z,97.99
2022-09-20T06:21:06.891Z,98.10
2022-09-20T06:22:06.931Z,98.20
2022-09-20T06:23:06.872Z,98.10
2022-09-20T06:24:06.880Z,97.99
2022-09-20T06:25:06.839Z,97.99
2022-09-20T06:26:06.842Z,97.79
2022-09-20T06:27:06.823Z,97.69
2022-09-20T06:28:06.812Z,97.58
2022-09-20T06:29:06.905Z,97.58
2022-09-20T06:30:06.792Z,97.44
2022-09-20T06:31:06.824Z,97.33
2022-09-20T06:32:06.832Z,97.54
2022-09-20T06:33:06.753Z,97.33
2022-09-20T06:34:06.774Z,97.23
2022-09-20T06:35:06.744Z,97.13
2022-09-20T06:36:06.720Z,96.92
2022-09-20T06:37:06.704Z,96.92
2022-09-20T06:38:06.724Z,96.92
2022-09-20T06:39:06.684Z,96.72
2022-09-20T06:40:06.709Z,96.62
2022-09-20T06:41:06.672Z,96.41
2022-09-20T06:42:06.660Z,96.51
2022-09-20T06:43:06.676Z,96.67
2022-09-20T06:44:06.710Z,96.78
2022-09-20T06:45:06.628Z,96.26
2022-09-20T06:46:06.662Z,96.06
2022-09-20T06:47:06.593Z,96.12
2022-09-20T06:48:06.605Z,96.22
2022-09-20T06:49:06.596Z,95.81
2022-09-20T06:50:06.604Z,95.50
2022-09-20T06:51:06.572Z,95.50
2022-09-20T06:52:06.545Z,95.61
2022-09-20T06:53:06.514Z,94.89
2022-09-20T06:54:06.544Z,94.78
2022-09-20T06:55:06.504Z,94.48
2022-09-20T06:56:06.504Z,94.48
2022-09-20T06:57:06.485Z,94.23
2022-09-20T06:58:06.472Z,94.33
2022-09-20T06:59:06.601Z,94.33
2022-09-20T07:00:06.456Z,94.23
2022-09-20T07:01:06.511Z,94.12
2022-09-20T07:02:06.467Z,93.92
2022-09-20T07:03:06.444Z,94.12
2022-09-20T07:04:06.437Z,94.23
2022-09-20T07:05:06.397Z,93.82
2022-09-20T07:06:06.414Z,94.23
2022-09-20T07:07:09.471Z,94.54
2022-09-20T07:08:06.364Z,94.23
2022-09-20T07:09:06.364Z,93.92
2022-09-20T07:10:06.396Z,93.71
2022-09-20T07:11:06.340Z,93.62
2022-09-20T07:12:06.324Z,93.41
2022-09-20T07:13:06.306Z,93.71
2022-09-20T07:14:06.448Z,94.02
2022-09-20T07:15:06.308Z,94.23
2022-09-20T07:16:06.467Z,94.33
2022-09-20T07:17:06.256Z,94.33
2022-09-20T07:18:06.245Z,94.02
2022-09-20T07:19:06.236Z,93.88
2022-09-20T07:20:06.255Z,93.51
2022-09-20T07:21:06.217Z,93.51
2022-09-20T07:22:06.232Z,93.77
2022-09-20T07:23:06.188Z,93.88
2022-09-20T07:24:06.188Z,93.57
2022-09-20T07:25:06.166Z,93.47
2022-09-20T07:26:06.177Z,93.57
2022-09-20T07:27:06.152Z,93.67
2022-09-20T07:28:06.145Z,93.47
2022-09-20T07:29:06.222Z,93.67
2022-09-20T07:30:06.130Z,93.26
2022-09-20T07:31:06.155Z,92.96
2022-09-20T07:32:06.113Z,92.96
2022-09-20T07:33:06.077Z,92.85
2022-09-20T07:34:06.094Z,92.96
2022-09-20T07:35:06.098Z,93.16
2022-09-20T07:36:06.053Z,93.16
2022-09-20T07:37:06.036Z,93.26
2022-09-20T07:38:06.045Z,93.47
2022-09-20T07:39:06.012Z,93.37
2022-09-20T07:40:06.035Z,93.26
2022-09-20T07:41:06.046Z,93.26
2022-09-20T07:42:05.994Z,93.37
2022-09-20T07:43:05.981Z,93.26
2022-09-20T07:44:06.078Z,93.57
2022-09-20T07:45:05.961Z,93.37
2022-09-20T07:46:06.000Z,93.26
2022-09-20T07:47:05.925Z,93.32
2022-09-20T07:48:05.910Z,93.43
2022-09-20T07:49:05.897Z,93.63
2022-09-20T07:50:05.897Z,93.43
2022-09-20T07:51:08.779Z,93.28
2022-09-20T07:52:05.886Z,93.48
2022-09-20T07:53:05.845Z,92.46
2022-09-20T07:54:05.846Z,91.54
2022-09-20T07:55:05.853Z,91.29
2022-09-20T07:56:05.826Z,90.92
2022-09-20T07:57:05.859Z,91.03
2022-09-20T07:58:05.805Z,91.64
2022-09-20T07:59:05.900Z,92.36
2022-09-20T08:00:05.791Z,92.15
2022-09-20T08:01:05.863Z,93.18
2022-09-20T08:02:05.820Z,93.59
2022-09-20T08:03:05.866Z,94.40
2022-09-20T08:04:05.885Z,95.12
2022-09-20T08:05:05.906Z,95.32
2022-09-20T08:06:05.946Z,96.25
2022-09-20T08:07:05.854Z,97.27
2022-09-20T08:08:06.005Z,97.67
2022-09-20T08:09:10.196Z,97.27
2022-09-20T08:10:06.657Z,97.06
2022-09-20T08:11:05.649Z,97.37
2022-09-20T08:14:17.363Z,97.37
2022-09-20T08:15:09.739Z,96.34
2022-09-20T08:16:06.594Z,96.75
2022-09-20T08:17:05.617Z,96.75
2022-09-20T08:18:05.590Z,97.21
2022-09-20T08:19:05.558Z,97.52
2022-09-20T08:20:05.561Z,97.62
2022-09-20T08:21:05.550Z,97.31
2022-09-20T08:22:05.538Z,96.29
2022-09-20T08:23:22.647Z,96.49
2022-09-20T08:24:06.500Z,97.11
2022-09-20T08:25:05.494Z,97.72
2022-09-20T08:26:07.716Z,98.44
2022-09-20T08:27:05.482Z,97.82
2022-09-20T08:28:05.458Z,98.03
2022-09-20T08:29:05.575Z,98.03
2022-09-20T08:30:05.446Z,97.52
2022-09-20T08:31:05.418Z,97.41
2022-09-20T08:32:05.447Z,96.70
2022-09-20T08:33:05.390Z,96.70
2022-09-20T08:34:05.390Z,96.80
2022-09-20T08:35:05.370Z,98.54
2022-09-20T08:36:05.391Z,98.49
2022-09-20T08:37:05.358Z,98.39
2022-09-20T08:40:06.419Z,96.04
2022-09-20T08:41:05.298Z,96.81
2022-09-20T08:42:05.334Z,99.02
2022-09-20T08:43:05.518Z,97.38
2022-09-20T08:44:05.402Z,95.64
2022-09-20T08:45:05.259Z,94.62
2022-09-20T08:46:05.690Z,95.29
2022-09-20T08:47:05.250Z,94.58
2022-09-20T08:48:05.230Z,94.78
2022-09-20T08:49:05.527Z,93.86
2022-09-20T08:50:17.728Z,94.17
2022-09-20T08:51:06.232Z,93.51
2022-09-20T08:52:10.444Z,93.00
2022-09-20T08:53:06.198Z,93.51
2022-09-20T08:54:05.171Z,92.90
2022-09-20T08:55:07.454Z,94.38
2022-09-20T08:56:05.139Z,94.75
2022-09-20T08:57:05.126Z,92.61
2022-09-20T08:58:08.878Z,91.35
2022-09-20T08:59:05.099Z,90.42
2022-09-20T09:00:05.231Z,91.03
2022-09-20T09:01:05.111Z,90.01
2022-09-20T09:02:05.122Z,89.81
2022-09-20T09:03:05.074Z,92.01
2022-09-20T09:04:05.091Z,92.42
2022-09-20T09:05:05.023Z,90.59
2022-09-20T09:06:10.345Z,89.26
2022-09-20T09:07:06.026Z,88.40
2022-09-20T09:08:05.138Z,87.38
2022-09-20T09:09:04.999Z,88.71
2022-09-20T09:10:04.995Z,88.10
2022-09-20T09:11:04.963Z,88.20
2022-09-20T09:12:04.992Z,87.96
2022-09-20T09:13:04.966Z,88.06
2022-09-20T09:14:04.932Z,86.74
2022-09-20T09:15:04.943Z,87.51
2022-09-20T09:16:04.912Z,89.03
2022-09-20T09:17:04.966Z,86.96
2022-09-20T09:18:05.043Z,85.43
2022-09-20T09:19:04.920Z,84.72
2022-09-20T09:20:04.873Z,85.53
2022-09-20T09:21:04.897Z,84.62
2022-09-20T09:22:04.855Z,84.82
2022-09-20T09:23:04.863Z,83.70
2022-09-20T09:24:04.825Z,83.09
2022-09-20T09:25:04.855Z,83.40
2022-09-20T09:26:04.803Z,84.11
2022-09-20T09:27:04.783Z,86.10
2022-09-20T09:28:04.794Z,83.97
2022-09-20T09:29:04.779Z,83.83
2022-09-20T09:30:04.765Z,81.93
2022-09-20T09:31:04.743Z,83.46
2022-09-20T09:32:04.828Z,82.04
2022-09-20T09:33:04.724Z,82.45
2022-09-20T09:34:04.799Z,82.45
2022-09-20T09:35:04.703Z,81.02
2022-09-20T09:36:04.696Z,81.73
2022-09-20T09:37:04.683Z,81.90
2022-09-20T09:38:04.683Z,80.31
2022-09-20T09:39:04.721Z,81.63
2022-09-20T09:40:04.711Z,81.70
2022-09-20T09:41:04.645Z,80.37
2022-09-20T09:42:04.623Z,79.66
2022-09-20T09:43:04.618Z,80.17
2022-09-20T09:44:04.620Z,78.75
2022-09-20T09:45:04.595Z,78.20
2022-09-20T09:46:04.632Z,78.00
2022-09-20T09:47:04.565Z,78.91
2022-09-20T09:48:04.563Z,78.47
2022-09-20T09:49:04.827Z,77.36
2022-09-20T09:50:09.500Z,77.76
2022-09-20T09:51:05.540Z,79.45
2022-09-20T09:52:04.519Z,77.18
2022-09-20T09:53:04.505Z,75.05
2022-09-20T09:54:04.547Z,75.05
2022-09-20T09:55:05.870Z,76.47
2022-09-20T09:56:04.468Z,74.65
2022-09-20T09:57:04.440Z,74.88
2022-09-20T09:58:04.456Z,75.79
2022-09-20T09:59:04.428Z,75.59
2022-09-20T10:00:09.374Z,75.79
2022-09-20T10:01:05.459Z,76.31
2022-09-20T10:02:04.459Z,76.78
2022-09-20T10:03:04.377Z,75.35
2022-09-20T10:04:04.367Z,75.12
2022-09-20T10:05:04.389Z,74.00
2022-09-20T10:06:04.368Z,74.61
2022-09-20T10:07:04.360Z,73.46
2022-09-20T10:08:04.340Z,71.64
2022-09-20T10:09:04.307Z,73.66
2022-09-20T10:10:04.307Z,71.70
2022-09-20T10:11:04.336Z,70.49
2022-09-20T10:12:04.288Z,70.83
2022-09-20T10:13:04.268Z,70.83
2022-09-20T10:14:04.267Z,71.23
2022-09-20T10:15:04.253Z,71.23
2022-09-20T10:16:04.239Z,71.67
2022-09-20T10:17:04.244Z,72.89
2022-09-20T10:18:04.207Z,72.89
2022-09-20T10:19:04.208Z,71.91
2022-09-20T10:20:04.194Z,72.25
2022-09-20T10:21:04.224Z,72.75
2022-09-20T10:22:04.188Z,73.57
2022-09-20T10:23:39.417Z,72.89
2022-09-20T10:24:05.231Z,72.38
2022-09-20T10:25:04.140Z,72.38
2022-09-20T10:26:04.132Z,73.16
2022-09-20T10:27:04.154Z,72.14
2022-09-20T10:28:04.148Z,72.75
2022-09-20T10:29:04.173Z,71.91
2022-09-20T10:30:04.148Z,69.98
2022-09-20T10:31:04.233Z,71.06
2022-09-20T10:32:04.142Z,71.26
2022-09-20T10:33:04.141Z,70.52
2022-09-20T10:34:04.201Z,69.92
2022-09-20T10:35:04.141Z,67.89
2022-09-20T10:36:04.238Z,68.46
2022-09-20T10:37:04.202Z,67.96
2022-09-20T10:38:04.287Z,67.96
2022-09-20T10:39:04.273Z,67.65
2022-09-20T10:40:04.283Z,66.47
2022-09-20T10:41:04.204Z,67.51
2022-09-20T10:42:04.303Z,69.44
2022-09-20T10:43:03.944Z,72.31
2022-09-20T10:44:05.647Z,73.12
2022-09-20T10:45:03.914Z,73.97
2022-09-20T10:46:27.957Z,75.32
2022-09-20T10:47:05.140Z,76.34
2022-09-20T10:48:03.873Z,75.83
2022-09-20T10:49:03.874Z,75.73
2022-09-20T10:50:03.846Z,76.44
2022-09-20T10:51:03.844Z,76.44
2022-09-20T10:52:03.816Z,75.93
2022-09-20T10:53:03.845Z,75.63
2022-09-20T10:54:03.797Z,75.83
2022-09-20T10:55:03.801Z,74.71
2022-09-20T10:56:03.780Z,75.02
2022-09-20T10:57:03.789Z,75.43
2022-09-20T10:58:03.796Z,75.63
2022-09-20T10:59:03.757Z,75.43
2022-09-20T11:00:03.748Z,74.82
2022-09-20T11:01:03.802Z,75.12
2022-09-20T11:02:03.781Z,75.43
2022-09-20T11:03:03.730Z,75.52
2022-09-20T11:04:03.688Z,75.79
2022-09-20T11:05:03.684Z,74.58
2022-09-20T11:06:03.657Z,73.93
2022-09-20T11:07:03.678Z,73.83
2022-09-20T11:08:03.676Z,73.22
2022-09-20T11:09:03.648Z,73.39
2022-09-20T11:10:03.629Z,72.48
2022-09-20T11:11:03.659Z,72.55
2022-09-20T11:12:03.600Z,73.36
2022-09-20T11:13:03.615Z,72.31
2022-09-20T11:14:03.578Z,70.52
2022-09-20T11:15:03.575Z,69.41
2022-09-20T11:16:03.569Z,70.72
2022-09-20T11:17:03.561Z,69.00
2022-09-20T11:18:03.529Z,69.00
2022-09-20T11:19:03.636Z,67.68
2022-09-20T11:20:07.192Z,68.93
2022-09-20T11:21:03.517Z,70.56
2022-09-20T11:22:03.490Z,70.56
2022-09-20T11:23:03.481Z,70.96
2022-09-20T11:24:03.480Z,71.77
2022-09-20T11:25:03.457Z,71.57
2022-09-20T11:26:03.439Z,72.31
2022-09-20T11:27:03.459Z,72.01
2022-09-20T11:28:03.423Z,71.30
2022-09-20T11:29:03.434Z,71.53
2022-09-20T11:30:03.389Z,72.14
2022-09-20T11:31:03.410Z,72.96
2022-09-20T11:32:03.431Z,72.85
2022-09-20T11:33:03.361Z,70.72
2022-09-20T11:34:03.358Z,70.52
2022-09-20T11:35:03.342Z,71.23
2022-09-20T11:36:03.322Z,72.38
2022-09-20T11:37:03.460Z,72.38
2022-09-20T11:38:03.291Z,72.38
2022-09-20T11:39:03.337Z,72.08
2022-09-20T11:40:03.353Z,72.69
2022-09-20T11:41:03.287Z,72.38
2022-09-20T11:42:03.263Z,72.01
2022-09-20T11:43:03.258Z,72.11
2022-09-20T11:44:03.230Z,72.62
2022-09-20T11:45:03.243Z,72.01
2022-09-20T11:46:03.293Z,72.17
2022-09-20T11:47:03.286Z,72.17
2022-09-20T11:48:03.181Z,71.26
2022-09-20T11:49:04.111Z,71.97
2022-09-20T11:50:03.230Z,71.67
2022-09-20T11:51:03.166Z,72.38
2022-09-20T11:52:03.234Z,71.03
2022-09-20T11:53:03.202Z,70.01
2022-09-20T11:54:03.182Z,69.71
2022-09-20T11:55:03.233Z,69.20
2022-09-20T11:56:03.174Z,69.37
2022-09-20T11:57:03.223Z,69.84
2022-09-20T11:58:03.197Z,69.54
2022-09-20T11:59:03.206Z,69.61
2022-09-20T12:00:03.142Z,70.69
2022-09-20T12:01:03.206Z,68.77
2022-09-20T12:02:03.335Z,67.99
2022-09-20T12:03:03.430Z,68.80
2022-09-20T12:04:31.813Z,68.83
2022-09-20T12:05:03.994Z,68.52
2022-09-20T12:06:03.026Z,68.83
2022-09-20T12:07:08.331Z,68.73
2022-09-20T12:08:03.950Z,69.47
2022-09-20T12:09:02.954Z,69.13
2022-09-20T12:10:02.954Z,68.26
2022-09-20T12:11:02.947Z,68.56
2022-09-20T12:12:02.979Z,68.66
2022-09-20T12:13:03.038Z,69.68
2022-09-20T12:14:02.902Z,69.44
2022-09-20T12:15:02.930Z,68.32
2022-09-20T12:16:02.890Z,68.63
2022-09-20T12:17:02.929Z,69.24
2022-09-20T12:18:08.284Z,69.44
2022-09-20T12:19:03.847Z,67.11
2022-09-20T12:20:02.818Z,67.41
2022-09-20T12:21:02.820Z,67.08
2022-09-20T12:22:02.818Z,66.06
2022-09-20T12:23:02.803Z,66.37
2022-09-20T12:24:02.768Z,66.13
2022-09-20T12:25:02.771Z,66.81
2022-09-20T12:26:02.759Z,66.41
2022-09-20T12:27:02.746Z,64.86
2022-09-20T12:28:02.770Z,64.65
2022-09-20T12:29:02.929Z,62.84
2022-09-20T12:30:02.706Z,64.55
2022-09-20T12:31:02.707Z,66.47
2022-09-20T12:32:02.714Z,64.25
2022-09-20T12:33:02.691Z,63.98
2022-09-20T12:34:02.681Z,64.69
2022-09-20T12:35:02.662Z,64.28
2022-09-20T12:36:02.680Z,63.57
2022-09-20T12:37:02.635Z,63.98
2022-09-20T12:38:02.675Z,64.79
2022-09-20T12:39:02.690Z,65.29
2022-09-20T12:40:02.893Z,65.70
2022-09-20T12:41:02.720Z,64.07
2022-09-20T12:42:02.751Z,64.28
2022-09-20T12:43:02.696Z,65.19
2022-09-20T12:44:02.751Z,64.55
2022-09-20T12:45:02.893Z,64.32
2022-09-20T12:46:06.388Z,63.41
2022-09-20T12:47:03.751Z,63.51
2022-09-20T12:48:02.503Z,63.31
2022-09-20T12:49:02.500Z,63.71
2022-09-20T12:50:02.497Z,65.23
2022-09-20T12:51:02.483Z,65.03
2022-09-20T12:52:02.451Z,65.53
2022-09-20T12:53:02.470Z,65.16
2022-09-20T12:54:02.431Z,64.45
2022-09-20T12:55:07.614Z,64.69
2022-09-20T12:56:03.427Z,65.32